createdAt,value
2023-03-28T00:01:16.445Z,6.80
2023-03-28T00:03:46.156Z,6.80
2023-03-28T00:06:18.503Z,6.80
2023-03-28T00:08:49.948Z,6.90
2023-03-28T00:11:21.115Z,6.80
2023-03-28T00:13:57.942Z,6.90
2023-03-28T00:16:32.013Z,6.90
2023-03-28T00:19:03.167Z,6.90
2023-03-28T00:21:34.393Z,6.90
2023-03-28T00:24:06.108Z,6.90
2023-03-28T00:26:36.573Z,6.90
2023-03-28T00:29:09.167Z,6.90
2023-03-28T00:31:40.465Z,6.90
2023-03-28T00:34:10.018Z,6.90
2023-03-28T00:36:39.969Z,6.90
2023-03-28T00:39:10.330Z,7.00
2023-03-28T00:41:42.338Z,6.90
2023-03-28T00:44:45.315Z,7.00
2023-03-28T00:47:26.677Z,7.00
2023-03-28T00:49:59.104Z,7.00
2023-03-28T00:52:32.647Z,7.00
2023-03-28T00:55:02.283Z,7.00
2023-03-28T00:57:31.507Z,7.00
2023-03-28T01:00:02.299Z,7.00
2023-03-28T01:02:31.737Z,7.00
2023-03-28T01:05:04.472Z,7.00
2023-03-28T01:07:41.255Z,7.00
2023-03-28T01:10:10.867Z,7.00
2023-03-28T01:12:41.598Z,7.00
2023-03-28T01:15:12.581Z,7.00
2023-03-28T01:17:52.605Z,7.00
2023-03-28T01:20:32.488Z,7.00
2023-03-28T01:23:28.583Z,7.00
2023-03-28T01:26:28.519Z,7.00
2023-03-28T01:29:31.568Z,7.00
2023-03-28T01:32:42.798Z,7.00
2023-03-28T01:35:51.543Z,7.00
2023-03-28T01:38:30.313Z,7.00
2023-03-28T01:41:08.724Z,6.90
2023-03-28T01:43:52.765Z,6.90
2023-03-28T01:46:27.901Z,6.90
2023-03-28T01:49:05.497Z,6.90
2023-03-28T01:51:47.524Z,6.90
2023-03-28T01:54:30.019Z,6.90
2023-03-28T01:57:07.475Z,6.90
2023-03-28T01:59:42.229Z,6.90
2023-03-28T02:02:33.057Z,6.80
2023-03-28T02:05:11.725Z,6.90
2023-03-28T02:07:46.866Z,6.90
2023-03-28T02:10:21.191Z,6.80
2023-03-28T02:13:04.487Z,6.80
2023-03-28T02:16:00.523Z,6.80
2023-03-28T02:19:09.719Z,6.70
2023-03-28T02:22:03.478Z,6.70
2023-03-28T02:24:51.990Z,6.70
2023-03-28T02:27:46.821Z,6.70
2023-03-28T02:30:23.944Z,6.70
2023-03-28T02:32:53.766Z,6.70
2023-03-28T02:35:32.860Z,6.70
2023-03-28T02:38:09.613Z,6.70
2023-03-28T02:40:51.723Z,6.70
2023-03-28T02:43:42.784Z,6.70
2023-03-28T02:46:28.003Z,6.70
2023-03-28T02:49:13.175Z,6.70
2023-03-28T02:51:48.085Z,6.70
2023-03-28T02:54:29.036Z,6.70
2023-03-28T02:57:28.288Z,6.70
2023-03-28T03:00:09.649Z,6.70
2023-03-28T03:02:39.734Z,6.70
2023-03-28T03:05:10.631Z,6.70
2023-03-28T03:07:39.916Z,6.60
2023-03-28T03:10:12.091Z,6.60
2023-03-28T03:12:42.067Z,6.60
2023-03-28T03:15:17.151Z,6.60
2023-03-28T03:17:53.816Z,6.60
2023-03-28T03:20:35.899Z,6.60
2023-03-28T03:23:06.352Z,6.60
2023-03-28T03:25:37.263Z,6.70
2023-03-28T03:28:13.919Z,6.60
2023-03-28T03:30:45.849Z,6.70
2023-03-28T03:33:38.451Z,6.60
2023-03-28T03:36:12.693Z,6.60
2023-03-28T03:38:42.478Z,6.60
2023-03-28T03:41:16.396Z,6.60
2023-03-28T03:43:47.173Z,6.60
2023-03-28T03:46:17.828Z,6.60
2023-03-28T03:48:49.865Z,6.60
2023-03-28T03:51:20.495Z,6.60
2023-03-28T03:53:52.837Z,6.60
2023-03-28T03:56:25.565Z,6.60
2023-03-28T03:58:57.714Z,6.60
2023-03-28T04:01:33.893Z,6.60
2023-03-28T04:04:36.943Z,6.60
2023-03-28T04:07:13.501Z,6.60
2023-03-28T04:09:42.648Z,6.60
2023-03-28T04:12:13.227Z,6.60
2023-03-28T04:14:47.990Z,6.60
2023-03-28T04:17:37.799Z,6.60
2023-03-28T04:20:15.065Z,6.60
2023-03-28T04:23:05.674Z,6.60
2023-03-28T04:25:35.459Z,6.60
2023-03-28T04:28:28.105Z,6.60
2023-03-28T04:31:06.152Z,6.60
2023-03-28T04:33:54.919Z,6.60
2023-03-28T04:36:25.646Z,6.60
2023-03-28T04:39:02.541Z,6.60
2023-03-28T04:41:55.444Z,6.60
2023-03-28T04:44:30.262Z,6.60
2023-03-28T04:47:04.652Z,6.60
2023-03-28T04:49:36.333Z,6.60
2023-03-28T04:52:05.488Z,6.60
2023-03-28T04:54:34.389Z,6.60
2023-03-28T04:57:09.066Z,6.60
2023-03-28T04:59:45.663Z,6.60
2023-03-28T05:02:26.701Z,6.60
2023-03-28T05:05:05.244Z,6.60
2023-03-28T05:07:35.087Z,6.60
2023-03-28T05:10:04.899Z,6.60
2023-03-28T05:12:38.537Z,6.60
2023-03-28T05:15:08.750Z,6.60
2023-03-28T05:17:51.048Z,6.60
2023-03-28T05:20:30.611Z,6.60
2023-03-28T05:23:01.191Z,6.60
2023-03-28T05:25:30.941Z,6.50
2023-03-28T05:28:01.317Z,6.60
2023-03-28T05:30:31.554Z,6.50
2023-03-28T05:33:01.739Z,6.50
2023-03-28T05:35:33.477Z,6.50
2023-03-28T05:38:02.755Z,6.50
2023-03-28T05:40:32.656Z,6.50
2023-03-28T05:43:03.014Z,6.50
2023-03-28T05:45:32.998Z,6.50
2023-03-28T05:48:22.899Z,6.50
2023-03-28T05:50:53.488Z,6.50
2023-03-28T05:53:23.774Z,6.50
2023-03-28T05:55:52.908Z,6.50
2023-03-28T05:58:22.338Z,6.50
2023-03-28T06:00:51.430Z,6.60
2023-03-28T06:03:22.356Z,6.60
2023-03-28T06:05:54.058Z,6.60
2023-03-28T06:08:25.478Z,6.60
2023-03-28T06:10:55.239Z,6.70
2023-03-28T06:13:29.573Z,6.70
2023-03-28T06:15:58.565Z,6.70
2023-03-28T06:18:37.423Z,6.70
2023-03-28T06:21:08.654Z,6.70
2023-03-28T06:23:37.655Z,6.70
2023-03-28T06:26:07.636Z,6.70
2023-03-28T06:28:43.302Z,6.80
2023-03-28T06:31:22.492Z,6.80
2023-03-28T06:33:52.012Z,6.80
2023-03-28T06:36:24.788Z,6.80
2023-03-28T06:38:55.025Z,6.80
2023-03-28T06:41:26.526Z,6.80
2023-03-28T06:43:55.884Z,6.80
2023-03-28T06:46:43.464Z,6.90
2023-03-28T06:49:14.692Z,6.90
2023-03-28T06:52:14.444Z,6.90
2023-03-28T06:54:47.256Z,6.90
2023-03-28T06:57:17.830Z,6.90
2023-03-28T06:59:48.770Z,6.90
2023-03-28T07:02:23.844Z,6.90
2023-03-28T07:04:55.567Z,6.90
2023-03-28T07:07:26.387Z,6.90
2023-03-28T07:09:56.165Z,7.00
2023-03-28T07:12:26.439Z,7.00
2023-03-28T07:14:55.506Z,7.00
2023-03-28T07:17:24.547Z,7.00
2023-03-28T07:19:54.441Z,7.00
2023-03-28T07:22:27.206Z,7.00
2023-03-28T07:24:56.637Z,7.00
2023-03-28T07:27:26.169Z,7.10
2023-03-28T07:29:55.546Z,7.10
2023-03-28T07:32:24.593Z,7.10
2023-03-28T07:34:53.710Z,7.20
2023-03-28T07:37:28.089Z,7.10
2023-03-28T07:40:10.977Z,7.20
2023-03-28T07:42:43.215Z,7.10
2023-03-28T07:45:12.998Z,7.20
2023-03-28T07:47:42.492Z,7.20
2023-03-28T07:50:12.167Z,7.20
2023-03-28T07:52:45.651Z,7.20
2023-03-28T07:55:15.849Z,7.30
2023-03-28T07:57:50.080Z,7.30
2023-03-28T08:00:46.506Z,7.30
2023-03-28T08:03:34.411Z,7.40
2023-03-28T08:06:09.410Z,7.50
2023-03-28T08:08:45.757Z,7.50
2023-03-28T08:11:27.062Z,7.50
2023-03-28T08:13:56.880Z,7.60
2023-03-28T08:16:26.645Z,7.60
2023-03-28T08:19:03.919Z,7.60
2023-03-28T08:21:46.837Z,7.70
2023-03-28T08:24:25.483Z,7.70
2023-03-28T08:27:09.893Z,7.70
2023-03-28T08:29:39.185Z,7.80
2023-03-28T08:32:08.515Z,7.90
2023-03-28T08:34:38.340Z,7.90
2023-03-28T08:37:14.267Z,8.00
2023-03-28T08:39:47.989Z,8.00
2023-03-28T08:43:01.374Z,8.10
2023-03-28T08:45:44.346Z,8.20
2023-03-28T08:48:19.389Z,8.30
2023-03-28T08:50:53.193Z,8.30
2023-03-28T08:53:27.967Z,8.40
2023-03-28T08:55:59.013Z,8.60
2023-03-28T08:58:35.784Z,8.60
2023-03-28T09:01:05.496Z,8.70
2023-03-28T09:03:37.274Z,8.70
2023-03-28T09:06:22.180Z,8.70
2023-03-28T09:09:10.656Z,8.80
2023-03-28T09:11:54.143Z,8.90
2023-03-28T09:14:52.472Z,8.90
2023-03-28T09:17:30.783Z,8.90
2023-03-28T09:20:12.185Z,8.90
2023-03-28T09:23:26.925Z,8.90
2023-03-28T09:26:18.954Z,8.80
2023-03-28T09:28:58.285Z,8.80
2023-03-28T09:31:32.082Z,8.80
2023-03-28T09:34:03.730Z,8.80
2023-03-28T09:36:49.148Z,8.80
2023-03-28T09:39:29.392Z,8.80
2023-03-28T09:42:03.869Z,8.90
2023-03-28T09:44:59.053Z,8.80
2023-03-28T09:47:48.876Z,8.80
2023-03-28T09:50:21.964Z,8.80
2023-03-28T09:52:58.888Z,8.70
2023-03-28T09:55:30.732Z,8.70
2023-03-28T09:58:07.053Z,8.70
2023-03-28T10:00:57.496Z,8.70
2023-03-28T10:03:54.412Z,8.70
2023-03-28T10:06:32.700Z,8.70
2023-03-28T10:09:18.933Z,8.70
2023-03-28T10:11:59.861Z,8.70
2023-03-28T10:14:36.718Z,8.70
2023-03-28T10:17:18.841Z,8.60
2023-03-28T10:19:51.343Z,8.70
2023-03-28T10:22:26.297Z,8.70
2023-03-28T10:24:57.828Z,8.60
2023-03-28T10:27:31.919Z,8.60
2023-03-28T10:30:10.709Z,8.70
2023-03-28T10:32:42.736Z,8.70
2023-03-28T10:35:27.863Z,8.90
2023-03-28T10:38:24.168Z,9.00
2023-03-28T10:41:19.975Z,9.10
2023-03-28T10:44:18.643Z,9.20
2023-03-28T10:47:01.631Z,9.30
2023-03-28T10:49:57.546Z,9.30
2023-03-28T10:52:39.293Z,9.30
2023-03-28T10:55:15.698Z,9.30
2023-03-28T10:58:20.836Z,9.30
2023-03-28T11:01:02.811Z,9.30
2023-03-28T11:03:55.344Z,9.30
2023-03-28T11:06:31.285Z,9.30
2023-03-28T11:09:07.526Z,9.30
2023-03-28T11:11:59.998Z,9.50
2023-03-28T11:14:38.086Z,9.60
2023-03-28T11:17:15.631Z,9.80
2023-03-28T11:20:30.928Z,10.00
2023-03-28T11:23:20.544Z,10.10
2023-03-28T11:26:13.055Z,10.20
2023-03-28T11:29:33.221Z,10.20
2023-03-28T11:32:17.393Z,10.20
2023-03-28T11:34:58.730Z,10.30
2023-03-28T11:37:32.046Z,10.30
2023-03-28T11:40:09.561Z,10.40
2023-03-28T11:42:56.695Z,10.40
2023-03-28T11:45:42.525Z,10.40
2023-03-28T11:48:22.566Z,10.40
2023-03-28T11:50:59.868Z,10.30
2023-03-28T11:53:40.700Z,10.30
2023-03-28T11:56:24.786Z,10.30
2023-03-28T11:59:13.791Z,10.20
2023-03-28T12:01:47.217Z,10.20
2023-03-28T12:04:21.894Z,10.20
2023-03-28T12:07:02.952Z,10.20
2023-03-28T12:09:45.273Z,10.20
2023-03-28T12:12:22.358Z,10.20
2023-03-28T12:14:56.236Z,10.20
2023-03-28T12:17:51.668Z,10.20
2023-03-28T12:20:30.334Z,10.10
2023-03-28T12:23:04.507Z,10.20
2023-03-28T12:26:03.919Z,10.20
2023-03-28T12:28:39.450Z,10.20
2023-03-28T12:31:16.229Z,10.40
2023-03-28T12:33:53.836Z,11.00
2023-03-28T12:36:49.173Z,11.70
2023-03-28T12:39:34.399Z,12.40
2023-03-28T12:42:12.158Z,12.90
2023-03-28T12:44:46.388Z,13.10
2023-03-28T12:47:19.732Z,13.30
2023-03-28T12:49:52.890Z,13.60
2023-03-28T12:52:26.679Z,13.80
2023-03-28T12:55:01.453Z,14.10
2023-03-28T12:57:46.677Z,14.40
2023-03-28T13:00:50.117Z,15.10
2023-03-28T13:03:53.690Z,15.80
2023-03-28T13:06:42.197Z,16.30
2023-03-28T13:09:39.102Z,16.40
2023-03-28T13:12:29.220Z,16.30
2023-03-28T13:15:00.731Z,16.00
2023-03-28T13:17:34.286Z,15.70
2023-03-28T13:20:10.410Z,15.40
2023-03-28T13:22:49.411Z,15.00
2023-03-28T13:25:28.319Z,14.70
2023-03-28T13:28:00.575Z,14.40
2023-03-28T13:30:31.338Z,14.10
2023-03-28T13:33:07.837Z,13.90
2023-03-28T13:35:49.170Z,13.70
2023-03-28T13:38:46.899Z,13.40
2023-03-28T13:41:55.037Z,13.20
2023-03-28T13:44:30.031Z,13.00
2023-03-28T13:46:59.098Z,12.80
2023-03-28T13:49:41.972Z,12.70
2023-03-28T13:52:16.606Z,12.70
2023-03-28T13:54:53.785Z,12.70
2023-03-28T13:57:26.001Z,12.60
2023-03-28T13:59:58.376Z,12.60
2023-03-28T14:02:38.510Z,12.60
2023-03-28T14:05:23.692Z,12.60
2023-03-28T14:07:55.214Z,12.60
2023-03-28T14:10:31.034Z,12.60
2023-03-28T14:13:03.636Z,12.70
2023-03-28T14:15:36.950Z,12.70
2023-03-28T14:18:06.687Z,12.80
2023-03-28T14:20:39.699Z,12.70
2023-03-28T14:23:26.939Z,12.70
2023-03-28T14:25:58.233Z,12.70
2023-03-28T14:28:30.063Z,12.50
2023-03-28T14:30:59.776Z,12.50
2023-03-28T14:33:37.394Z,12.40
2023-03-28T14:36:10.898Z,12.30
2023-03-28T14:38:40.608Z,12.20
2023-03-28T14:41:17.285Z,12.20
2023-03-28T14:43:51.736Z,12.10
2023-03-28T14:46:24.668Z,12.10
2023-03-28T14:48:56.251Z,12.10
2023-03-28T14:51:28.058Z,12.10
2023-03-28T14:53:57.743Z,12.10
2023-03-28T14:56:28.957Z,12.10
2023-03-28T14:59:02.302Z,12.00
2023-03-28T15:01:34.130Z,12.00
2023-03-28T15:04:06.972Z,12.00
2023-03-28T15:06:39.253Z,12.00
2023-03-28T15:09:22.993Z,11.90
2023-03-28T15:11:52.597Z,11.90
2023-03-28T15:14:30.864Z,11.90
2023-03-28T15:17:00.932Z,11.90
2023-03-28T15:19:35.004Z,11.80
2023-03-28T15:22:10.309Z,11.80
2023-03-28T15:24:40.265Z,11.80
2023-03-28T15:27:18.779Z,11.80
2023-03-28T15:29:47.832Z,11.70
2023-03-28T15:32:19.346Z,11.70
2023-03-28T15:34:55.704Z,11.60
2023-03-28T15:37:27.407Z,11.60
2023-03-28T15:40:13.225Z,11.60
2023-03-28T15:42:42.403Z,11.60
2023-03-28T15:45:30.739Z,11.60
2023-03-28T15:48:00.086Z,11.60
2023-03-28T15:50:33.263Z,11.50
2023-03-28T15:53:07.068Z,11.50
2023-03-28T15:55:36.748Z,11.50
2023-03-28T15:58:06.642Z,11.50
2023-03-28T16:00:41.788Z,11.40
2023-03-28T16:03:32.958Z,11.40
2023-03-28T16:06:31.722Z,11.40
2023-03-28T16:09:16.048Z,11.40
2023-03-28T16:11:45.971Z,11.30
2023-03-28T16:14:33.257Z,11.30
2023-03-28T16:17:24.930Z,11.30
2023-03-28T16:20:15.154Z,11.30
2023-03-28T16:22:44.704Z,11.20
2023-03-28T16:25:15.511Z,11.20
2023-03-28T16:27:44.507Z,11.20
2023-03-28T16:30:20.636Z,11.20
2023-03-28T16:32:50.412Z,11.20
2023-03-28T16:35:19.649Z,11.10
2023-03-28T16:37:48.751Z,11.10
2023-03-28T16:40:19.345Z,11.10
2023-03-28T16:42:48.246Z,11.10
2023-03-28T16:45:17.468Z,11.00
2023-03-28T16:47:46.572Z,11.00
2023-03-28T16:50:17.029Z,11.00
2023-03-28T16:52:45.979Z,10.90
2023-03-28T16:55:16.768Z,10.90
2023-03-28T16:57:47.310Z,10.90
2023-03-28T17:00:20.139Z,10.80
2023-03-28T17:02:49.624Z,10.80
2023-03-28T17:05:19.854Z,10.70
2023-03-28T17:07:48.788Z,10.70
2023-03-28T17:10:17.964Z,10.70
2023-03-28T17:12:48.649Z,10.70
2023-03-28T17:15:18.000Z,10.70
2023-03-28T17:17:47.558Z,10.70
2023-03-28T17:20:17.267Z,10.70
2023-03-28T17:22:46.856Z,10.60
2023-03-28T17:25:15.935Z,10.60
2023-03-28T17:27:44.878Z,10.60
2023-03-28T17:30:15.945Z,10.50
2023-03-28T17:32:45.299Z,10.50
2023-03-28T17:35:14.802Z,10.50
2023-03-28T17:37:44.009Z,10.40
2023-03-28T17:40:13.707Z,10.40
2023-03-28T17:42:42.761Z,10.40
2023-03-28T17:45:12.319Z,10.30
2023-03-28T17:47:42.690Z,10.20
2023-03-28T17:50:12.798Z,10.20
2023-03-28T17:52:41.955Z,10.20
2023-03-28T17:55:11.010Z,10.10
2023-03-28T17:57:40.617Z,10.10
2023-03-28T18:00:10.853Z,10.10
2023-03-28T18:02:46.336Z,10.00
2023-03-28T18:05:41.513Z,9.90
2023-03-28T18:08:11.010Z,9.90
2023-03-28T18:10:41.429Z,9.80
2023-03-28T18:13:10.686Z,9.80
2023-03-28T18:15:40.932Z,9.80
2023-03-28T18:18:12.693Z,9.80
2023-03-28T18:20:43.501Z,9.70
2023-03-28T18:23:12.530Z,9.70
2023-03-28T18:25:42.210Z,9.60
2023-03-28T18:28:11.541Z,9.60
2023-03-28T18:30:42.172Z,9.60
2023-03-28T18:33:12.649Z,9.50
2023-03-28T18:35:41.813Z,9.50
2023-03-28T18:38:12.403Z,9.40
2023-03-28T18:40:42.203Z,9.40
2023-03-28T18:43:11.981Z,9.40
2023-03-28T18:45:41.764Z,9.30
2023-03-28T18:48:13.065Z,9.30
2023-03-28T18:50:42.136Z,9.30
2023-03-28T18:53:12.226Z,9.20
2023-03-28T18:55:43.744Z,9.20
2023-03-28T18:58:12.836Z,9.20
2023-03-28T19:00:41.922Z,9.20
2023-03-28T19:03:17.592Z,9.20
2023-03-28T19:05:47.007Z,9.10
2023-03-28T19:08:16.490Z,9.10
2023-03-28T19:10:46.878Z,9.10
2023-03-28T19:13:16.033Z,9.00
2023-03-28T19:15:45.061Z,9.00
2023-03-28T19:18:15.851Z,9.00
2023-03-28T19:20:50.088Z,8.90
2023-03-28T19:23:19.374Z,8.90
2023-03-28T19:25:49.009Z,8.90
2023-03-28T19:28:18.836Z,8.80
2023-03-28T19:30:47.999Z,8.80
2023-03-28T19:33:18.712Z,8.70
2023-03-28T19:35:47.723Z,8.70
2023-03-28T19:38:16.899Z,8.70
2023-03-28T19:40:46.004Z,8.70
2023-03-28T19:43:20.941Z,8.60
2023-03-28T19:45:49.918Z,8.60
2023-03-28T19:48:20.605Z,8.50
2023-03-28T19:50:50.676Z,8.50
2023-03-28T19:53:19.701Z,8.50
2023-03-28T19:55:53.278Z,8.50
2023-03-28T19:58:23.062Z,8.50
2023-03-28T20:00:52.614Z,8.40
2023-03-28T20:03:23.352Z,8.40
2023-03-28T20:05:52.559Z,8.40
2023-03-28T20:08:22.035Z,8.40
2023-03-28T20:10:52.476Z,8.40
2023-03-28T20:13:21.679Z,8.40
2023-03-28T20:15:50.543Z,8.30
2023-03-28T20:18:20.810Z,8.40
2023-03-28T20:20:52.218Z,8.40
2023-03-28T20:23:23.379Z,8.30
2023-03-28T20:25:53.822Z,8.30
2023-03-28T20:28:25.010Z,8.30
2023-03-28T20:30:54.546Z,8.30
2023-03-28T20:33:23.639Z,8.30
2023-03-28T20:35:54.667Z,8.30
2023-03-28T20:38:24.612Z,8.20
2023-03-28T20:40:53.688Z,8.20
2023-03-28T20:43:26.696Z,8.20
2023-03-28T20:45:57.637Z,8.10
2023-03-28T20:48:35.112Z,8.10
2023-03-28T20:51:14.147Z,8.10
2023-03-28T20:53:44.277Z,8.10
2023-03-28T20:56:14.453Z,8.10
2023-03-28T20:58:44.054Z,8.10
2023-03-28T21:01:16.530Z,8.10
2023-03-28T21:03:49.855Z,8.00
2023-03-28T21:06:22.415Z,8.00
2023-03-28T21:08:53.808Z,8.00
2023-03-28T21:11:26.007Z,8.00
2023-03-28T21:13:55.920Z,8.00
2023-03-28T21:16:25.578Z,7.90
2023-03-28T21:18:54.917Z,7.90
2023-03-28T21:21:25.352Z,7.90
2023-03-28T21:23:54.180Z,7.90
2023-03-28T21:26:24.599Z,7.90
2023-03-28T21:28:54.598Z,7.90
2023-03-28T21:31:25.603Z,7.90
2023-03-28T21:33:57.054Z,7.90
2023-03-28T21:36:28.208Z,7.80
2023-03-28T21:38:57.677Z,7.80
2023-03-28T21:41:28.271Z,7.80
2023-03-28T21:43:57.419Z,7.80
2023-03-28T21:46:27.167Z,7.80
2023-03-28T21:48:56.512Z,7.80
2023-03-28T21:51:27.247Z,7.80
2023-03-28T21:53:56.786Z,7.70
2023-03-28T21:56:26.229Z,7.70
2023-03-28T21:58:55.344Z,7.70
2023-03-28T22:01:24.592Z,7.70
2023-03-28T22:03:53.832Z,7.70
2023-03-28T22:06:22.916Z,7.70
2023-03-28T22:08:55.143Z,7.70
2023-03-28T22:11:28.526Z,7.70
2023-03-28T22:14:02.057Z,7.60
2023-03-28T22:16:32.285Z,7.70
2023-03-28T22:19:01.538Z,7.60
2023-03-28T22:21:31.430Z,7.60
2023-03-28T22:24:04.262Z,7.60
2023-03-28T22:26:33.326Z,7.60
2023-03-28T22:29:02.282Z,7.60
2023-03-28T22:31:31.167Z,7.60
2023-03-28T22:34:00.118Z,7.60
2023-03-28T22:36:29.206Z,7.60
2023-03-28T22:38:58.094Z,7.60
2023-03-28T22:41:31.457Z,7.60
2023-03-28T22:44:00.536Z,7.70
2023-03-28T22:46:29.909Z,7.70
2023-03-28T22:49:00.558Z,7.70
2023-03-28T22:51:29.714Z,7.70
2023-03-28T22:54:01.709Z,7.80
2023-03-28T22:56:32.141Z,7.70
2023-03-28T22:59:01.920Z,7.70
2023-03-28T23:01:31.048Z,7.80
2023-03-28T23:04:00.628Z,7.80
2023-03-28T23:06:29.658Z,7.80
2023-03-28T23:08:59.223Z,7.80
2023-03-28T23:11:28.199Z,7.80
2023-03-28T23:13:58.574Z,7.80
2023-03-28T23:16:27.758Z,7.90
2023-03-28T23:18:57.036Z,7.90
2023-03-28T23:21:26.238Z,7.90
2023-03-28T23:23:55.596Z,7.90
2023-03-28T23:26:24.949Z,7.90
2023-03-28T23:28:54.000Z,7.90
2023-03-28T23:31:24.324Z,7.90
2023-03-28T23:33:53.296Z,7.90
2023-03-28T23:36:22.328Z,8.00
2023-03-28T23:38:51.227Z,8.00
2023-03-28T23:41:20.165Z,8.00
2023-03-28T23:43:49.282Z,8.00
2023-03-28T23:46:18.436Z,8.00
2023-03-28T23:48:48.832Z,8.00
2023-03-28T23:51:17.949Z,8.00
2023-03-28T23:53:46.914Z,8.00
2023-03-28T23:56:15.904Z,8.00
2023-03-28T23:58:44.954Z,8.00
